Time;durP1;ratioP1;P1;durP2;ratioP2;P2;SDS_P1;SDS_P2;PMS_P1;PMS_P2;Temp;Humidity;BMP_temperature;BMP_pressure;BME280_temperature;BME280_humidity;BME280_pressure;Samples;Min_cycle;Max_cycle;Signal;HPM_P1;HPM_P2
2022/10/03 00:02:29;;;;;;;5.20;2.50;;;;;;;;;;4994177;28;20045;-67
2022/10/03 00:05:09;;;;;;;5.35;2.90;;;;;;;;;;4991147;28;20085;-66
2022/10/03 00:07:38;;;;;;;6.30;2.83;;;;;;;;;;4991208;28;20762;-67
2022/10/03 00:10:08;;;;;;;6.60;3.05;;;;;;;;;;4978901;28;20041;-68
2022/10/03 00:12:52;;;;;;;5.65;2.75;;;;;;;;;;4992884;28;20034;-68
2022/10/03 00:15:45;;;;;;;4.90;2.80;;;;;;;;;;4991134;28;20042;-69
2022/10/03 00:18:18;;;;;;;5.60;2.92;;;;;;;;;;4973684;28;20049;-67
2022/10/03 00:20:48;;;;;;;15.18;3.03;;;;;;;;;;4988963;28;20049;-66
2022/10/03 00:23:15;;;;;;;6.00;2.80;;;;;;;;;;4994493;28;20042;-68
2022/10/03 00:25:45;;;;;;;8.07;3.33;;;;;;;;;;4992203;28;20046;-66
2022/10/03 00:28:21;;;;;;;6.97;2.90;;;;;;;;;;5006767;28;20045;-67
2022/10/03 00:31:07;;;;;;;5.93;2.80;;;;;;;;;;5007124;28;20091;-67
2022/10/03 00:33:39;;;;;;;7.28;3.17;;;;;;;;;;5003309;28;20122;-67
2022/10/03 00:36:19;;;;;;;6.82;2.88;;;;;;;;;;5007532;28;20038;-67
2022/10/03 00:38:58;;;;;;;5.85;2.85;;;;;;;;;;4996076;28;20504;-67
2022/10/03 00:41:34;;;;;;;7.57;2.97;;;;;;;;;;4998384;28;20497;-67
2022/10/03 00:44:15;;;;;;;7.18;3.00;;;;;;;;;;5004247;28;20060;-67
2022/10/03 00:46:54;;;;;;;7.40;3.10;;;;;;;;;;5005386;28;20046;-67
2022/10/03 00:49:39;;;;;;;7.93;3.10;;;;;;;;;;5003432;28;20042;-68
2022/10/03 00:52:06;;;;;;;9.20;3.20;;;;;;;;;;5004309;28;20399;-67
2022/10/03 00:54:32;;;;;;;8.07;3.10;;;;;;;;;;5005157;28;20129;-67
2022/10/03 00:57:05;;;;;;;5.97;3.38;;;;;;;;;;5004708;28;20045;-67
2022/10/03 00:59:31;;;;;;;;;;;;;;;;;;4992306;28;20049;-66
2022/10/03 01:01:59;;;;;;;7.55;3.42;;;;;;;;;;5001884;28;19928;-67
2022/10/03 01:04:25;;;;;;;10.98;3.60;;;;;;;;;;4949398;28;20052;-67
2022/10/03 01:07:04;;;;;;;11.98;4.07;;;;;;;;;;4955729;28;20095;-68
2022/10/03 01:09:33;;;;;;;7.63;3.30;;;;;;;;;;4953421;28;20138;-67
2022/10/03 01:12:13;;;;;;;9.93;3.50;;;;;;;;;;4953073;28;20739;-65
2022/10/03 01:14:40;;;;;;;8.10;3.65;;;;;;;;;;4951802;28;20047;-67
2022/10/03 01:17:18;;;;;;;11.30;3.67;;;;;;;;;;4954633;28;20034;-67
2022/10/03 01:19:57;;;;;;;12.25;4.00;;;;;;;;;;4952090;28;20049;-66
2022/10/03 01:22:30;;;;;;;12.57;3.95;;;;;;;;;;4954794;28;20043;-64
2022/10/03 01:24:59;;;;;;;12.13;4.20;;;;;;;;;;4954798;28;20082;-64
2022/10/03 01:27:33;;;;;;;7.38;3.03;;;;;;;;;;4955121;28;20149;-66
2022/10/03 01:30:23;;;;;;;12.55;3.50;;;;;;;;;;4952923;28;20134;-65
2022/10/03 01:33:00;;;;;;;10.52;4.00;;;;;;;;;;4952545;28;20157;-66
2022/10/03 01:35:39;;;;;;;8.75;3.40;;;;;;;;;;4974287;28;20046;-64
2022/10/03 01:38:16;;;;;;;9.32;3.70;;;;;;;;;;5008015;28;20072;-64
2022/10/03 01:41:01;;;;;;;8.10;3.58;;;;;;;;;;5008906;28;20379;-67
2022/10/03 01:43:50;;;;;;;9.77;3.08;;;;;;;;;;5009579;28;20508;-62
2022/10/03 01:46:20;;;;;;;6.35;3.15;;;;;;;;;;4957608;28;20049;-66
2022/10/03 01:49:02;;;;;;;5.85;3.20;;;;;;;;;;5008421;28;20116;-65
2022/10/03 01:51:33;;;;;;;8.23;3.60;;;;;;;;;;4995118;28;20225;-64
2022/10/03 01:54:13;;;;;;;8.55;2.97;;;;;;;;;;5009720;28;20069;-68
2022/10/03 01:56:53;;;;;;;6.63;3.47;;;;;;;;;;5010793;28;20546;-64
2022/10/03 01:59:46;;;;;;;8.85;3.60;;;;;;;;;;5004026;28;20078;-69
2022/10/03 02:02:33;;;;;;;8.27;3.50;;;;;;;;;;4972967;28;20049;-65
2022/10/03 02:05:00;;;;;;;7.57;3.40;;;;;;;;;;4990630;28;20041;-65
2022/10/03 02:07:40;;;;;;;12.50;3.50;;;;;;;;;;4995853;28;20525;-65
2022/10/03 02:10:27;;;;;;;5.78;3.22;;;;;;;;;;5010022;28;20045;-65
2022/10/03 02:13:13;;;;;;;6.75;3.40;;;;;;;;;;5003260;28;20142;-64
2022/10/03 02:15:42;;;;;;;6.07;3.33;;;;;;;;;;5007938;28;20045;-64
2022/10/03 02:18:14;;;;;;;5.55;3.08;;;;;;;;;;4993866;28;20052;-66
2022/10/03 02:20:47;;;;;;;6.10;3.22;;;;;;;;;;5010858;28;20050;-67
2022/10/03 02:23:31;;;;;;;8.63;3.72;;;;;;;;;;5010757;28;20123;-67
2022/10/03 02:26:04;;;;;;;9.70;3.72;;;;;;;;;;5011243;28;20045;-68
2022/10/03 02:28:31;;;;;;;10.30;3.67;;;;;;;;;;4995060;28;20175;-68
2022/10/03 02:31:06;;;;;;;12.65;4.40;;;;;;;;;;4990737;28;20041;-67
2022/10/03 02:33:43;;;;;;;12.68;4.15;;;;;;;;;;4991099;28;20034;-67
2022/10/03 02:36:13;;;;;;;7.68;3.75;;;;;;;;;;4989914;28;20061;-69
2022/10/03 02:38:53;;;;;;;7.07;3.80;;;;;;;;;;5007800;28;20073;-69
2022/10/03 02:41:32;;;;;;;11.15;3.67;;;;;;;;;;5009348;28;20049;-67
2022/10/03 02:44:02;;;;;;;11.02;3.78;;;;;;;;;;5009227;28;20086;-68
2022/10/03 02:46:47;;;;;;;13.52;4.00;;;;;;;;;;5006703;28;20052;-68
2022/10/03 02:49:37;;;;;;;13.50;4.00;;;;;;;;;;5010171;28;20045;-68
2022/10/03 02:52:16;;;;;;;8.35;4.10;;;;;;;;;;5009463;28;20045;-67
2022/10/03 02:54:51;;;;;;;6.25;3.53;;;;;;;;;;5009193;28;20057;-68
2022/10/03 02:57:18;;;;;;;8.32;4.00;;;;;;;;;;5008291;28;20057;-67
2022/10/03 03:00:03;;;;;;;7.78;3.33;;;;;;;;;;5007604;28;20045;-67
2022/10/03 03:02:35;;;;;;;14.75;4.15;;;;;;;;;;4998801;28;20509;-67
2022/10/03 03:05:20;;;;;;;10.07;4.18;;;;;;;;;;4993790;28;20330;-66
2022/10/03 03:08:05;;;;;;;8.70;3.95;;;;;;;;;;5008813;28;20058;-68
2022/10/03 03:10:44;;;;;;;16.60;3.67;;;;;;;;;;5006887;28;20045;-67
2022/10/03 03:13:29;;;;;;;9.98;3.65;;;;;;;;;;5009342;28;21333;-67
2022/10/03 03:16:00;;;;;;;11.38;4.03;;;;;;;;;;5006914;28;20449;-67
2022/10/03 03:18:29;;;;;;;12.25;5.20;;;;;;;;;;4988648;28;20498;-67
2022/10/03 03:20:56;;;;;;;11.80;5.85;;;;;;;;;;5006190;28;20398;-67
2022/10/03 03:23:49;;;;;;;17.05;5.65;;;;;;;;;;5000027;28;20069;-66
2022/10/03 03:26:34;;;;;;;17.63;7.00;;;;;;;;;;4976452;28;20056;-66
2022/10/03 03:29:16;;;;;;;8.85;3.85;;;;;;;;;;5007736;28;20052;-68
2022/10/03 03:31:42;;;;;;;13.55;4.35;;;;;;;;;;5008136;28;20591;-65
2022/10/03 03:34:09;;;;;;;11.13;4.32;;;;;;;;;;4988960;28;20038;-67
2022/10/03 03:36:44;;;;;;;9.48;4.20;;;;;;;;;;5008135;28;20041;-65
2022/10/03 03:39:11;;;;;;;10.77;4.68;;;;;;;;;;5002275;28;20050;-66
2022/10/03 03:41:57;;;;;;;8.50;3.80;;;;;;;;;;5000771;28;20037;-66
2022/10/03 03:44:24;;;;;;;12.35;4.30;;;;;;;;;;4988154;28;20049;-66
2022/10/03 03:46:50;;;;;;;9.43;3.95;;;;;;;;;;5007401;28;20384;-65
2022/10/03 03:49:28;;;;;;;10.38;4.07;;;;;;;;;;4989212;28;20026;-64
2022/10/03 03:52:01;;;;;;;14.85;4.60;;;;;;;;;;5007121;28;20034;-67
2022/10/03 03:54:27;;;;;;;;;;;;;;;;;;5006343;28;20052;-65
2022/10/03 03:56:54;;;;;;;18.45;4.95;;;;;;;;;;5007170;28;19922;-66
2022/10/03 03:59:36;;;;;;;16.60;5.38;;;;;;;;;;5006406;28;21903;-67
2022/10/03 04:02:04;;;;;;;9.27;4.43;;;;;;;;;;4989018;28;21841;-65
2022/10/03 04:04:36;;;;;;;13.68;4.57;;;;;;;;;;4998775;28;20037;-65
2022/10/03 04:07:09;;;;;;;9.83;4.30;;;;;;;;;;5007124;28;20046;-64
2022/10/03 04:09:54;;;;;;;14.38;4.57;;;;;;;;;;5006875;28;20679;-67
2022/10/03 04:12:37;;;;;;;16.05;4.47;;;;;;;;;;5006837;28;20807;-65
2022/10/03 04:15:07;;;;;;;11.67;4.13;;;;;;;;;;5007059;28;20467;-65
2022/10/03 04:20:26;;;;;;;11.32;3.60;;;;;;;;;;5007598;28;20107;-66
2022/10/03 04:22:53;;;;;;;15.93;4.10;;;;;;;;;;5008178;28;20661;-65
2022/10/03 04:25:28;;;;;;;7.97;3.70;;;;;;;;;;5012215;28;20046;-65
2022/10/03 04:28:07;;;;;;;16.48;4.22;;;;;;;;;;5005844;28;20076;-65
2022/10/03 04:30:42;;;;;;;10.65;4.10;;;;;;;;;;5011946;28;20073;-65
2022/10/03 04:33:09;;;;;;;15.95;3.95;;;;;;;;;;5009306;28;20044;-65
2022/10/03 04:35:48;;;;;;;14.57;4.03;;;;;;;;;;5008035;28;20113;-66
2022/10/03 04:38:20;;;;;;;12.70;3.75;;;;;;;;;;5008292;28;20164;-63
2022/10/03 04:40:49;;;;;;;12.63;3.67;;;;;;;;;;5012523;28;20043;-65
2022/10/03 04:43:42;;;;;;;10.60;3.90;;;;;;;;;;5012105;28;20993;-64
2022/10/03 04:46:08;;;;;;;9.48;4.10;;;;;;;;;;5006083;28;20497;-65
2022/10/03 04:48:43;;;;;;;7.18;3.33;;;;;;;;;;5012607;28;20647;-64
2022/10/03 04:51:32;;;;;;;9.70;4.22;;;;;;;;;;4994079;28;20041;-65
2022/10/03 04:54:14;;;;;;;6.57;3.42;;;;;;;;;;4975075;28;20058;-64
2022/10/03 04:56:46;;;;;;;8.65;3.80;;;;;;;;;;5012677;28;20153;-64
2022/10/03 04:59:33;;;;;;;10.73;4.43;;;;;;;;;;5013646;28;20054;-64
2022/10/03 05:02:08;;;;;;;9.85;3.97;;;;;;;;;;5011920;28;20072;-64
2022/10/03 05:04:53;;;;;;;7.88;3.70;;;;;;;;;;5010822;28;20045;-64
2022/10/03 05:07:40;;;;;;;7.38;3.80;;;;;;;;;;5013035;28;20072;-65
2022/10/03 05:10:20;;;;;;;9.10;3.72;;;;;;;;;;5012951;28;20072;-64
2022/10/03 05:12:59;;;;;;;9.95;4.22;;;;;;;;;;5011141;28;20593;-63
2022/10/03 05:15:42;;;;;;;10.90;4.40;;;;;;;;;;5010402;28;20041;-64
2022/10/03 05:18:28;;;;;;;15.43;4.53;;;;;;;;;;5011682;28;20137;-64
2022/10/03 05:21:04;;;;;;;10.70;4.00;;;;;;;;;;4993771;28;20129;-64
2022/10/03 05:23:49;;;;;;;9.85;4.65;;;;;;;;;;5012460;28;20029;-64
2022/10/03 05:26:22;;;;;;;23.98;5.00;;;;;;;;;;5012020;28;20060;-66
2022/10/03 05:28:54;;;;;;;13.57;4.53;;;;;;;;;;5008325;28;20041;-65
2022/10/03 05:31:32;;;;;;;15.07;4.47;;;;;;;;;;5011963;28;20109;-64
2022/10/03 05:34:00;;;;;;;9.00;4.47;;;;;;;;;;5012033;28;20497;-65
2022/10/03 05:37:01;;;;;;;15.95;4.57;;;;;;;;;;5011730;28;20038;-66
2022/10/03 05:39:28;;;;;;;12.85;4.50;;;;;;;;;;4911062;29;20742;-66
2022/10/03 05:42:06;;;;;;;9.27;4.35;;;;;;;;;;4993811;28;20030;-65
2022/10/03 05:44:41;;;;;;;9.43;4.53;;;;;;;;;;5007266;28;20050;-66
2022/10/03 05:47:48;;;;;;;12.02;4.68;;;;;;;;;;5014086;28;20120;-66
2022/10/03 05:50:06;;;;;;;15.15;5.10;;;;;;;;;;5010028;28;20490;-67
2022/10/03 05:52:33;;;;;;;16.73;4.80;;;;;;;;;;5009220;28;20038;-66
2022/10/03 05:55:19;;;;;;;15.13;4.45;;;;;;;;;;5010767;28;20046;-66
2022/10/03 05:57:59;;;;;;;15.57;5.22;;;;;;;;;;5011298;28;20145;-65
2022/10/03 06:00:49;;;;;;;12.07;4.40;;;;;;;;;;5009376;28;20902;-66
2022/10/03 06:03:22;;;;;;;14.70;4.90;;;;;;;;;;5001577;28;20089;-65
2022/10/03 06:06:00;;;;;;;11.45;4.18;;;;;;;;;;5008143;28;20049;-65
2022/10/03 06:08:30;;;;;;;9.38;4.38;;;;;;;;;;5007434;28;21797;-66
2022/10/03 06:11:00;;;;;;;9.82;4.38;;;;;;;;;;5007486;28;20045;-65
2022/10/03 06:13:38;;;;;;;13.80;4.35;;;;;;;;;;4993297;28;20111;-65
2022/10/03 06:16:21;;;;;;;10.75;4.45;;;;;;;;;;4988754;28;20042;-65
2022/10/03 06:18:48;;;;;;;9.23;4.35;;;;;;;;;;5001817;28;20058;-66
2022/10/03 06:21:24;;;;;;;12.57;4.47;;;;;;;;;;5006593;28;20806;-66
2022/10/03 06:23:53;;;;;;;11.52;4.90;;;;;;;;;;5005968;28;20103;-67
2022/10/03 06:26:37;;;;;;;7.95;4.40;;;;;;;;;;5006444;28;20042;-66
2022/10/03 06:29:23;;;;;;;12.30;4.13;;;;;;;;;;5007871;28;20352;-64
2022/10/03 06:32:05;;;;;;;12.30;4.53;;;;;;;;;;5009071;28;20084;-64
2022/10/03 06:34:56;;;;;;;10.10;4.50;;;;;;;;;;5008788;28;20522;-65
2022/10/03 06:37:31;;;;;;;12.80;4.68;;;;;;;;;;5008954;28;20131;-65
2022/10/03 06:40:09;;;;;;;8.45;4.40;;;;;;;;;;5008061;28;20161;-65
2022/10/03 06:42:45;;;;;;;12.50;4.93;;;;;;;;;;5007097;28;20033;-66
2022/10/03 06:45:18;;;;;;;10.95;4.00;;;;;;;;;;5008770;28;20398;-66
2022/10/03 06:48:02;;;;;;;13.75;3.88;;;;;;;;;;5006826;28;20041;-67
2022/10/03 06:50:49;;;;;;;6.72;3.50;;;;;;;;;;5005881;28;20038;-66
2022/10/03 06:53:26;;;;;;;13.30;4.57;;;;;;;;;;5007653;28;20091;-66
2022/10/03 06:56:08;;;;;;;9.70;4.43;;;;;;;;;;5008438;28;20437;-66
2022/10/03 06:58:49;;;;;;;10.60;3.97;;;;;;;;;;5006676;28;20382;-66
2022/10/03 07:01:25;;;;;;;8.68;3.75;;;;;;;;;;5004821;28;20041;-66
2022/10/03 07:04:09;;;;;;;9.30;3.47;;;;;;;;;;5004350;28;20042;-65
2022/10/03 07:06:42;;;;;;;11.95;4.07;;;;;;;;;;5003436;28;20050;-65
2022/10/03 07:09:14;;;;;;;7.85;3.70;;;;;;;;;;5006872;28;20030;-65
2022/10/03 07:11:56;;;;;;;11.05;3.65;;;;;;;;;;5005649;28;20034;-68
2022/10/03 07:14:25;;;;;;;7.47;3.90;;;;;;;;;;5006418;28;20056;-66
2022/10/03 07:17:00;;;;;;;11.52;4.22;;;;;;;;;;5006123;28;20081;-66
2022/10/03 07:19:26;;;;;;;9.77;4.00;;;;;;;;;;5005146;28;20104;-64
2022/10/03 07:22:08;;;;;;;14.02;3.88;;;;;;;;;;5008072;28;20049;-64
2022/10/03 07:24:53;;;;;;;7.13;3.58;;;;;;;;;;5004879;28;20045;-65
2022/10/03 07:27:22;;;;;;;9.93;3.83;;;;;;;;;;4988197;28;20057;-66
2022/10/03 07:30:04;;;;;;;11.10;3.95;;;;;;;;;;5006427;28;20506;-65
2022/10/03 07:32:31;;;;;;;10.30;4.05;;;;;;;;;;5006843;28;20569;-65
2022/10/03 07:35:16;;;;;;;8.38;4.07;;;;;;;;;;5006891;28;20076;-65
2022/10/03 07:40:58;;;;;;;9.07;4.15;;;;;;;;;;5006171;28;20092;-65
2022/10/03 07:43:34;;;;;;;10.27;4.25;;;;;;;;;;5006810;28;20462;-65
2022/10/03 07:46:13;;;;;;;8.30;3.58;;;;;;;;;;5005799;28;20069;-64
2022/10/03 07:48:40;;;;;;;10.48;4.13;;;;;;;;;;5005319;28;20054;-64
2022/10/03 07:51:33;;;;;;;11.98;4.22;;;;;;;;;;5002073;28;20044;-64
2022/10/03 07:54:18;;;;;;;7.45;3.70;;;;;;;;;;4985132;28;20775;-64
2022/10/03 07:56:48;;;;;;;9.93;3.70;;;;;;;;;;5007829;28;20050;-64
2022/10/03 07:59:14;;;;;;;12.45;4.15;;;;;;;;;;4987366;28;20073;-65
2022/10/03 08:01:41;;;;;;;9.63;4.00;;;;;;;;;;5008217;28;20514;-64
2022/10/03 08:04:10;;;;;;;8.38;4.00;;;;;;;;;;5009081;28;20045;-65
2022/10/03 08:06:37;;;;;;;11.15;3.92;;;;;;;;;;5009857;28;21214;-64
2022/10/03 08:09:04;;;;;;;8.82;4.03;;;;;;;;;;5008666;28;20046;-66
2022/10/03 08:11:33;;;;;;;11.10;3.97;;;;;;;;;;5009814;28;20033;-65
2022/10/03 08:14:19;;;;;;;9.88;4.25;;;;;;;;;;5007907;28;20096;-65
2022/10/03 08:17:00;;;;;;;13.50;4.15;;;;;;;;;;5006411;28;20046;-67
2022/10/03 08:19:30;;;;;;;8.55;4.30;;;;;;;;;;4990235;28;20045;-64
2022/10/03 08:22:19;;;;;;;9.32;4.50;;;;;;;;;;5008070;28;20042;-64
2022/10/03 08:24:55;;;;;;;10.88;4.50;;;;;;;;;;5007402;28;20045;-67
2022/10/03 08:27:22;;;;;;;9.32;4.35;;;;;;;;;;5008305;28;20099;-65
2022/10/03 08:30:04;;;;;;;9.50;4.28;;;;;;;;;;5007072;28;20683;-65
2022/10/03 08:32:43;;;;;;;9.20;4.43;;;;;;;;;;5007609;28;20107;-62
2022/10/03 08:35:12;;;;;;;10.45;4.50;;;;;;;;;;5008302;28;20037;-65
2022/10/03 08:37:57;;;;;;;8.63;4.20;;;;;;;;;;4992086;28;20113;-66
2022/10/03 08:40:42;;;;;;;10.65;4.45;;;;;;;;;;5006577;28;20038;-65
2022/10/03 08:43:15;;;;;;;9.32;3.95;;;;;;;;;;5007123;28;20037;-64
2022/10/03 08:45:44;;;;;;;11.30;4.82;;;;;;;;;;5005610;28;20495;-65
2022/10/03 08:48:29;;;;;;;8.30;4.30;;;;;;;;;;5007098;28;20034;-64
2022/10/03 08:51:05;;;;;;;11.68;4.80;;;;;;;;;;5004305;28;20210;-65
2022/10/03 08:53:35;;;;;;;8.82;4.30;;;;;;;;;;5005156;28;20091;-65
2022/10/03 08:56:14;;;;;;;8.68;4.03;;;;;;;;;;5005961;28;20461;-66
2022/10/03 08:58:59;;;;;;;13.38;4.70;;;;;;;;;;5004860;28;20042;-65
2022/10/03 09:01:44;;;;;;;10.73;4.05;;;;;;;;;;5004944;28;20110;-64
2022/10/03 09:04:10;;;;;;;13.48;4.00;;;;;;;;;;5004523;28;20052;-66
2022/10/03 09:06:55;;;;;;;11.23;4.45;;;;;;;;;;5006436;28;20549;-65
2022/10/03 09:09:44;;;;;;;10.32;4.28;;;;;;;;;;5003600;28;20038;-64
2022/10/03 09:12:27;;;;;;;13.95;4.03;;;;;;;;;;5005701;28;20042;-62
2022/10/03 09:15:12;;;;;;;7.32;4.05;;;;;;;;;;5005351;28;20120;-65
2022/10/03 09:17:39;;;;;;;8.80;4.45;;;;;;;;;;5005091;28;20044;-66
2022/10/03 09:20:24;;;;;;;10.70;5.10;;;;;;;;;;4988377;28;20049;-65
2022/10/03 09:22:54;;;;;;;13.88;5.05;;;;;;;;;;5005208;28;20052;-65
2022/10/03 09:25:39;;;;;;;11.20;4.65;;;;;;;;;;5007432;28;20060;-67
2022/10/03 09:28:07;;;;;;;9.27;4.68;;;;;;;;;;4992637;28;20084;-66
2022/10/03 09:30:36;;;;;;;10.13;4.88;;;;;;;;;;5006034;28;20069;-65
2022/10/03 09:33:22;;;;;;;13.18;4.55;;;;;;;;;;5010492;28;20057;-66
2022/10/03 09:35:55;;;;;;;10.73;4.05;;;;;;;;;;5009924;28;20394;-65
2022/10/03 09:38:38;;;;;;;9.57;3.95;;;;;;;;;;5009669;28;20038;-65
2022/10/03 09:41:23;;;;;;;12.13;4.65;;;;;;;;;;5009874;28;20635;-66
2022/10/03 09:43:56;;;;;;;9.00;4.38;;;;;;;;;;4996750;28;21427;-64
2022/10/03 09:47:21;;;;;;;14.18;4.60;;;;;;;;;;5009150;28;20578;-65
2022/10/03 09:49:45;;;;;;;9.98;5.00;;;;;;;;;;5005574;28;20662;-65
2022/10/03 09:52:33;;;;;;;10.23;4.70;;;;;;;;;;5009573;28;20105;-65
2022/10/03 09:55:00;;;;;;;9.38;4.60;;;;;;;;;;5008486;28;20042;-65
2022/10/03 09:57:46;;;;;;;9.48;4.80;;;;;;;;;;5009011;28;20050;-65
2022/10/03 10:00:19;;;;;;;7.45;4.65;;;;;;;;;;4990250;28;20050;-66
2022/10/03 10:03:05;;;;;;;15.60;5.55;;;;;;;;;;4996300;28;20048;-65
2022/10/03 10:05:32;;;;;;;12.25;4.95;;;;;;;;;;4962534;28;20034;-65
2022/10/03 10:08:07;;;;;;;9.57;4.90;;;;;;;;;;5008326;28;20045;-66
2022/10/03 10:10:43;;;;;;;9.43;4.97;;;;;;;;;;5007972;28;20090;-65
2022/10/03 10:13:26;;;;;;;9.32;4.85;;;;;;;;;;5005187;28;20107;-65
2022/10/03 10:16:11;;;;;;;11.25;4.90;;;;;;;;;;5008410;28;20076;-66
2022/10/03 10:18:40;;;;;;;11.32;5.07;;;;;;;;;;5007381;28;20449;-65
2022/10/03 10:21:25;;;;;;;11.63;4.95;;;;;;;;;;5007772;28;20030;-66
2022/10/03 10:24:10;;;;;;;8.68;4.90;;;;;;;;;;5009496;28;21754;-66
2022/10/03 10:26:43;;;;;;;9.60;4.32;;;;;;;;;;5008058;28;20068;-63
2022/10/03 10:29:22;;;;;;;6.80;3.85;;;;;;;;;;5008395;28;20037;-65
2022/10/03 10:31:53;;;;;;;7.32;4.45;;;;;;;;;;5006543;28;20066;-66
2022/10/03 10:34:38;;;;;;;11.05;5.00;;;;;;;;;;5007268;28;20334;-66
2022/10/03 10:37:37;;;;;;;11.85;4.60;;;;;;;;;;5007019;28;20596;-65
2022/10/03 10:40:23;;;;;;;13.32;5.13;;;;;;;;;;4956251;28;20041;-66
2022/10/03 10:43:21;;;;;;;11.65;4.97;;;;;;;;;;5007801;28;20038;-66
2022/10/03 10:45:47;;;;;;;11.82;5.43;;;;;;;;;;5007331;28;20228;-65
2022/10/03 10:48:23;;;;;;;9.23;5.30;;;;;;;;;;5007925;28;20239;-65
2022/10/03 10:51:00;;;;;;;10.07;4.97;;;;;;;;;;5007416;28;20109;-65
2022/10/03 10:53:45;;;;;;;10.20;4.60;;;;;;;;;;5007180;28;20076;-64
2022/10/03 10:56:30;;;;;;;10.75;4.82;;;;;;;;;;5008546;28;20747;-66
2022/10/03 10:59:07;;;;;;;10.50;4.63;;;;;;;;;;5005247;28;20041;-64
2022/10/03 11:01:45;;;;;;;15.25;5.07;;;;;;;;;;5008238;28;20470;-64
2022/10/03 11:04:21;;;;;;;11.02;4.80;;;;;;;;;;5006763;28;20037;-65
2022/10/03 11:06:57;;;;;;;11.57;5.30;;;;;;;;;;4993645;28;20057;-67
2022/10/03 11:09:42;;;;;;;9.15;5.13;;;;;;;;;;4997721;28;20939;-65
2022/10/03 11:12:24;;;;;;;13.32;5.15;;;;;;;;;;4992547;28;20062;-66
2022/10/03 11:15:03;;;;;;;10.00;4.72;;;;;;;;;;4988207;28;20102;-65
2022/10/03 11:17:48;;;;;;;11.20;5.00;;;;;;;;;;4998998;28;20136;-66
2022/10/03 11:20:14;;;;;;;12.32;4.78;;;;;;;;;;5007998;28;20042;-65
2022/10/03 11:23:00;;;;;;;9.13;5.20;;;;;;;;;;5009137;28;20128;-65
2022/10/03 11:25:30;;;;;;;9.48;5.32;;;;;;;;;;4990903;28;20057;-64
2022/10/03 11:28:03;;;;;;;14.27;5.05;;;;;;;;;;5005619;28;20052;-66
2022/10/03 11:30:29;;;;;;;11.57;5.55;;;;;;;;;;5006163;28;20049;-65
2022/10/03 11:33:14;;;;;;;8.98;4.75;;;;;;;;;;5006411;28;20045;-65
2022/10/03 11:35:44;;;;;;;12.18;5.25;;;;;;;;;;5004941;28;21412;-65
2022/10/03 11:38:23;;;;;;;9.57;5.07;;;;;;;;;;4992531;28;20046;-65
2022/10/03 11:41:16;;;;;;;10.07;4.40;;;;;;;;;;5005939;28;20041;-65
2022/10/03 11:43:49;;;;;;;10.75;4.93;;;;;;;;;;4972399;28;20521;-65
2022/10/03 11:46:21;;;;;;;9.32;4.45;;;;;;;;;;5004811;28;20038;-63
2022/10/03 11:49:06;;;;;;;13.15;5.13;;;;;;;;;;5005621;28;20038;-66
2022/10/03 11:51:40;;;;;;;14.35;5.38;;;;;;;;;;5007043;28;20669;-65
2022/10/03 11:54:14;;;;;;;8.77;5.05;;;;;;;;;;5008118;28;20042;-65
2022/10/03 11:56:44;;;;;;;10.07;4.88;;;;;;;;;;5007170;28;20052;-66
2022/10/03 11:59:29;;;;;;;23.80;5.25;;;;;;;;;;5008315;28;20414;-65
2022/10/03 12:02:21;;;;;;;14.10;5.65;;;;;;;;;;5007447;28;20030;-64
2022/10/03 12:04:51;;;;;;;14.18;5.70;;;;;;;;;;4993477;28;20045;-64
2022/10/03 12:10:06;;;;;;;9.30;5.20;;;;;;;;;;5009349;28;20047;-64
2022/10/03 12:12:55;;;;;;;12.48;5.35;;;;;;;;;;5007976;28;20467;-65
2022/10/03 12:15:21;;;;;;;9.45;4.55;;;;;;;;;;5005957;28;20037;-65
2022/10/03 12:18:20;;;;;;;9.50;5.28;;;;;;;;;;5005084;28;20030;-65
2022/10/03 12:20:51;;;;;;;10.85;5.55;;;;;;;;;;4966705;28;20053;-65
2022/10/03 12:23:20;;;;;;;9.30;5.38;;;;;;;;;;5001966;28;20056;-65
2022/10/03 12:25:48;;;;;;;12.10;5.32;;;;;;;;;;5003876;28;20621;-64
2022/10/03 12:28:20;;;;;;;8.65;5.57;;;;;;;;;;5006208;28;20064;-67
2022/10/03 12:31:06;;;;;;;10.70;4.95;;;;;;;;;;5006212;28;20049;-66
2022/10/03 12:33:32;;;;;;;10.80;4.75;;;;;;;;;;5004764;28;20042;-66
2022/10/03 12:36:04;;;;;;;12.20;5.35;;;;;;;;;;5006483;28;20490;-66
2022/10/03 12:38:44;;;;;;;10.13;5.43;;;;;;;;;;5004029;28;20057;-66
2022/10/03 12:41:17;;;;;;;9.02;4.78;;;;;;;;;;5005536;28;20538;-66
2022/10/03 12:44:04;;;;;;;12.55;4.93;;;;;;;;;;4989700;28;20165;-64
2022/10/03 12:46:43;;;;;;;14.00;5.30;;;;;;;;;;5004669;28;20045;-64
2022/10/03 12:49:19;;;;;;;10.15;5.72;;;;;;;;;;5005951;28;20636;-66
2022/10/03 12:51:55;;;;;;;11.20;5.88;;;;;;;;;;5005102;28;20042;-67
2022/10/03 12:54:24;;;;;;;11.32;5.75;;;;;;;;;;5003037;28;20137;-65
2022/10/03 12:57:09;;;;;;;10.43;4.95;;;;;;;;;;5003049;28;20057;-65
2022/10/03 12:59:41;;;;;;;9.45;5.05;;;;;;;;;;5004533;28;20054;-66
2022/10/03 13:02:28;;;;;;;11.32;5.10;;;;;;;;;;5009594;28;20394;-65
2022/10/03 13:04:58;;;;;;;12.95;5.72;;;;;;;;;;5009065;28;20093;-67
2022/10/03 13:07:30;;;;;;;13.40;5.13;;;;;;;;;;5007737;28;20145;-65
2022/10/03 13:10:30;;;;;;;11.07;5.73;;;;;;;;;;5009203;28;20058;-66
2022/10/03 13:13:08;;;;;;;16.02;5.82;;;;;;;;;;4954512;28;20861;-66
2022/10/03 13:16:02;;;;;;;19.50;6.38;;;;;;;;;;5006722;28;20438;-67
2022/10/03 13:18:32;;;;;;;15.70;6.28;;;;;;;;;;4981461;28;20053;-61
2022/10/03 13:21:07;;;;;;;11.40;5.85;;;;;;;;;;5008016;28;20049;-64
2022/10/03 13:23:52;;;;;;;15.43;5.75;;;;;;;;;;5008084;28;20460;-62
2022/10/03 13:26:37;;;;;;;9.90;6.00;;;;;;;;;;5007770;28;20043;-65
2022/10/03 13:29:16;;;;;;;12.65;5.43;;;;;;;;;;5008012;28;20151;-63
2022/10/03 13:32:05;;;;;;;12.75;5.55;;;;;;;;;;5008783;28;20053;-64
2022/10/03 13:34:39;;;;;;;11.77;5.15;;;;;;;;;;5007213;28;20041;-65
2022/10/03 13:37:09;;;;;;;16.23;5.55;;;;;;;;;;5007131;28;20042;-65
2022/10/03 13:39:35;;;;;;;11.98;5.50;;;;;;;;;;5007637;28;20119;-64
2022/10/03 13:42:24;;;;;;;16.00;5.38;;;;;;;;;;5008569;28;20130;-65
2022/10/03 13:44:56;;;;;;;15.45;5.68;;;;;;;;;;5007343;28;20491;-66
2022/10/03 13:47:29;;;;;;;14.27;5.53;;;;;;;;;;5008191;28;20037;-66
2022/10/03 13:50:00;;;;;;;15.82;5.80;;;;;;;;;;4999369;28;20271;-66
2022/10/03 13:52:29;;;;;;;13.10;6.60;;;;;;;;;;5008034;28;20041;-67
2022/10/03 13:55:08;;;;;;;13.48;6.18;;;;;;;;;;5007898;28;20041;-66
2022/10/03 13:57:53;;;;;;;16.17;5.50;;;;;;;;;;4994352;28;20053;-67
2022/10/03 14:00:22;;;;;;;15.43;6.35;;;;;;;;;;5005505;28;20149;-66
2022/10/03 14:03:01;;;;;;;12.35;5.80;;;;;;;;;;5008205;28;20068;-68
2022/10/03 14:05:47;;;;;;;26.70;6.63;;;;;;;;;;5007158;28;20045;-67
2022/10/03 14:08:24;;;;;;;23.42;6.35;;;;;;;;;;4990348;28;20060;-66
2022/10/03 14:10:51;;;;;;;15.15;6.07;;;;;;;;;;5009770;28;20042;-65
2022/10/03 14:13:18;;;;;;;18.55;5.22;;;;;;;;;;5008680;28;20053;-65
2022/10/03 14:16:11;;;;;;;16.10;6.00;;;;;;;;;;5008473;28;20185;-64
2022/10/03 14:18:55;;;;;;;19.13;6.45;;;;;;;;;;4973755;28;20053;-66
2022/10/03 14:21:28;;;;;;;15.57;6.07;;;;;;;;;;5007691;28;20558;-65
2022/10/03 14:24:13;;;;;;;11.10;6.07;;;;;;;;;;5010789;28;20129;-64
2022/10/03 14:26:42;;;;;;;10.70;5.93;;;;;;;;;;5007773;28;20258;-65
2022/10/03 14:29:09;;;;;;;12.80;5.82;;;;;;;;;;5010369;28;20104;-66
2022/10/03 14:31:38;;;;;;;10.93;5.60;;;;;;;;;;5007619;28;20049;-66
2022/10/03 14:34:13;;;;;;;11.45;5.57;;;;;;;;;;5009625;28;20042;-66
2022/10/03 14:36:52;;;;;;;13.63;6.05;;;;;;;;;;4989270;28;20048;-66
2022/10/03 14:39:41;;;;;;;12.55;5.78;;;;;;;;;;5008289;28;20038;-69
2022/10/03 14:42:11;;;;;;;11.55;5.90;;;;;;;;;;5010922;28;20285;-66
2022/10/03 14:44:54;;;;;;;14.55;5.88;;;;;;;;;;5008791;28;20100;-66
2022/10/03 14:47:22;;;;;;;15.30;6.00;;;;;;;;;;5009061;28;20114;-66
2022/10/03 14:49:53;;;;;;;12.00;5.70;;;;;;;;;;4991166;28;20034;-65
2022/10/03 14:52:29;;;;;;;11.90;5.88;;;;;;;;;;5009010;28;20125;-66
2022/10/03 14:54:57;;;;;;;17.02;6.10;;;;;;;;;;4992124;28;20454;-65
2022/10/03 14:57:31;;;;;;;12.50;5.53;;;;;;;;;;5006045;28;20153;-66
2022/10/03 14:59:58;;;;;;;18.98;6.57;;;;;;;;;;4990838;28;20057;-66
2022/10/03 15:02:35;;;;;;;14.95;6.05;;;;;;;;;;5007141;28;20053;-65
2022/10/03 15:05:34;;;;;;;14.52;6.43;;;;;;;;;;5008103;28;20197;-66
2022/10/03 15:08:03;;;;;;;15.70;6.70;;;;;;;;;;4951761;28;20189;-66
2022/10/03 15:10:31;;;;;;;15.27;6.13;;;;;;;;;;5006921;28;20127;-66
2022/10/03 15:13:04;;;;;;;16.65;6.60;;;;;;;;;;5009502;28;20103;-68
2022/10/03 15:15:50;;;;;;;14.45;6.80;;;;;;;;;;4997014;28;20069;-66
2022/10/03 15:18:19;;;;;;;13.20;6.90;;;;;;;;;;4974664;28;20073;-66
2022/10/03 15:20:48;;;;;;;12.60;6.38;;;;;;;;;;4989022;28;20850;-67
2022/10/03 15:23:23;;;;;;;14.43;6.47;;;;;;;;;;5001533;28;20038;-65
2022/10/03 15:25:54;;;;;;;18.23;6.75;;;;;;;;;;4971431;28;20049;-64
2022/10/03 15:28:22;;;;;;;12.00;6.25;;;;;;;;;;5006735;28;20116;-65
2022/10/03 15:30:50;;;;;;;15.13;6.35;;;;;;;;;;4998129;28;20132;-65
2022/10/03 15:33:29;;;;;;;15.52;6.40;;;;;;;;;;5011583;28;20034;-65
2022/10/03 15:35:58;;;;;;;15.10;6.18;;;;;;;;;;4990681;28;20072;-65
2022/10/03 15:38:26;;;;;;;12.30;6.15;;;;;;;;;;4979247;28;20054;-66
2022/10/03 15:41:10;;;;;;;11.68;5.70;;;;;;;;;;4980244;28;20133;-66
2022/10/03 15:43:52;;;;;;;16.33;5.97;;;;;;;;;;4992944;28;20034;-65